Time;durP1;ratioP1;P1;durP2;ratioP2;P2;SDS_P1;SDS_P2;PMS_P1;PMS_P2;Temp;Humidity;BMP_temperature;BMP_pressure;BME280_temperature;BME280_humidity;BME280_pressure;Samples;Min_cycle;Max_cycle;Signal;HPM_P1;HPM_P2
2022/06/02 00:02:04;;;;;;;25.98;18.00;;;;;;;;;;5068936;28;20035;-77
2022/06/02 00:04:54;;;;;;;23.73;19.48;;;;;;;;;;5070700;28;20150;-79
2022/06/02 00:07:20;;;;;;;19.70;16.73;;;;;;;;;;5053451;28;20029;-76
2022/06/02 00:09:55;;;;;;;21.95;17.92;;;;;;;;;;5065415;28;20131;-77
2022/06/02 00:12:24;;;;;;;26.52;20.48;;;;;;;;;;5069079;28;20020;-76
2022/06/02 00:15:00;;;;;;;21.40;19.17;;;;;;;;;;5068049;28;20046;-77
2022/06/02 00:17:31;;;;;;;18.08;15.48;;;;;;;;;;5087817;28;20063;-78
2022/06/02 00:20:15;;;;;;;17.58;15.48;;;;;;;;;;5089061;28;20010;-77
2022/06/02 00:22:50;;;;;;;19.65;16.90;;;;;;;;;;5077766;28;20027;-77
2022/06/02 00:25:26;;;;;;;23.17;19.17;;;;;;;;;;5070590;28;20473;-77
2022/06/02 00:28:12;;;;;;;51.15;19.98;;;;;;;;;;5072588;28;20009;-77
2022/06/02 00:30:41;;;;;;;30.48;17.60;;;;;;;;;;5072084;28;20041;-78
2022/06/02 00:33:20;;;;;;;19.65;17.10;;;;;;;;;;5072574;28;20031;-78
2022/06/02 00:35:53;;;;;;;19.65;16.67;;;;;;;;;;5072407;28;20024;-77
2022/06/02 00:38:23;;;;;;;25.05;17.88;;;;;;;;;;5071569;28;20025;-78
2022/06/02 00:40:50;;;;;;;19.25;16.67;;;;;;;;;;5072510;28;20025;-77
2022/06/02 00:43:25;;;;;;;23.42;17.63;;;;;;;;;;5072568;28;20492;-78
2022/06/02 00:45:55;;;;;;;22.88;18.83;;;;;;;;;;5072429;28;20524;-78
2022/06/02 00:48:38;;;;;;;21.65;17.02;;;;;;;;;;5070283;28;20394;-78
2022/06/02 00:51:06;;;;;;;26.98;18.10;;;;;;;;;;5071648;28;20078;-79
2022/06/02 00:53:35;;;;;;;23.17;16.92;;;;;;;;;;5072040;28;20017;-77
2022/06/02 00:59:00;;;;;;;22.15;18.30;;;;;;;;;;5052213;28;20430;-77
2022/06/02 01:01:31;;;;;;;20.15;18.13;;;;;;;;;;5052364;28;20013;-78
2022/06/02 01:03:58;;;;;;;22.00;19.05;;;;;;;;;;5052179;28;20024;-76
2022/06/02 01:06:33;;;;;;;22.10;19.58;;;;;;;;;;5066533;28;20044;-77
2022/06/02 01:08:59;;;;;;;23.25;18.88;;;;;;;;;;5071692;28;20560;-78
2022/06/02 01:11:44;;;;;;;21.77;18.95;;;;;;;;;;5069865;28;20044;-77
2022/06/02 01:14:25;;;;;;;21.40;15.73;;;;;;;;;;5071806;28;20472;-77
2022/06/02 01:17:03;;;;;;;20.48;16.00;;;;;;;;;;5071189;28;20358;-76
2022/06/02 01:19:32;;;;;;;27.88;18.17;;;;;;;;;;5071330;28;20070;-78
2022/06/02 01:22:17;;;;;;;28.73;19.63;;;;;;;;;;5071888;28;20028;-79
2022/06/02 01:24:46;;;;;;;22.65;18.33;;;;;;;;;;5070187;28;20116;-77
2022/06/02 01:27:21;;;;;;;23.60;18.27;;;;;;;;;;5071846;28;20434;-78
2022/06/02 01:30:05;;;;;;;27.55;18.00;;;;;;;;;;5069927;28;20052;-78
2022/06/02 01:32:40;;;;;;;18.10;16.13;;;;;;;;;;5071669;28;20032;-78
2022/06/02 01:35:13;;;;;;;18.52;16.15;;;;;;;;;;5070968;28;20040;-79
2022/06/02 01:37:48;;;;;;;18.70;14.93;;;;;;;;;;5071575;28;20031;-78
2022/06/02 01:40:20;;;;;;;38.35;17.52;;;;;;;;;;5071354;28;20479;-78
2022/06/02 01:42:52;;;;;;;82.10;22.77;;;;;;;;;;5069514;28;20358;-78
2022/06/02 01:45:21;;;;;;;20.02;15.73;;;;;;;;;;5071842;28;20017;-78
2022/06/02 01:47:50;;;;;;;42.43;15.80;;;;;;;;;;5071075;28;20062;-78
2022/06/02 01:50:35;;;;;;;20.40;15.10;;;;;;;;;;5069642;28;20037;-77
2022/06/02 01:53:14;;;;;;;22.70;14.88;;;;;;;;;;5051176;28;20158;-78
2022/06/02 01:55:56;;;;;;;17.97;14.77;;;;;;;;;;5064454;28;20009;-77
2022/06/02 01:58:25;;;;;;;20.90;15.25;;;;;;;;;;5071001;28;20030;-78
2022/06/02 02:00:55;;;;;;;53.30;16.57;;;;;;;;;;5071212;28;20483;-77
2022/06/02 02:03:21;;;;;;;;;;;;;;;;;;5071232;28;20028;-76
2022/06/02 02:06:07;;;;;;;47.05;17.27;;;;;;;;;;5052882;28;19991;-77
2022/06/02 02:08:36;;;;;;;30.08;13.35;;;;;;;;;;5054810;28;20087;-77
2022/06/02 02:11:08;;;;;;;14.20;11.03;;;;;;;;;;5070476;28;20036;-76
2022/06/02 02:13:46;;;;;;;17.08;11.70;;;;;;;;;;5070524;28;20267;-77
2022/06/02 02:16:19;;;;;;;17.77;11.73;;;;;;;;;;5065601;28;20024;-77
2022/06/02 02:18:50;;;;;;;17.05;10.98;;;;;;;;;;5068755;28;20151;-77
2022/06/02 02:21:19;;;;;;;12.98;10.68;;;;;;;;;;5070844;28;20021;-77
2022/06/02 02:23:56;;;;;;;14.95;10.57;;;;;;;;;;5070842;28;20017;-78
2022/06/02 02:26:43;;;;;;;14.80;10.25;;;;;;;;;;5069109;28;20052;-78
2022/06/02 02:29:31;;;;;;;12.38;9.98;;;;;;;;;;5068165;28;20029;-79
2022/06/02 02:32:15;;;;;;;14.82;10.88;;;;;;;;;;5065127;28;20036;-76
2022/06/02 02:34:49;;;;;;;18.00;11.07;;;;;;;;;;5070332;28;20016;-77
2022/06/02 02:37:24;;;;;;;13.18;9.30;;;;;;;;;;5070453;28;20035;-76
2022/06/02 02:39:53;;;;;;;10.15;8.80;;;;;;;;;;5070221;28;20013;-79
2022/06/02 02:42:32;;;;;;;12.38;9.90;;;;;;;;;;5070187;28;20024;-78
2022/06/02 02:45:04;;;;;;;11.18;10.07;;;;;;;;;;5067564;28;20033;-77
2022/06/02 02:47:33;;;;;;;12.63;9.20;;;;;;;;;;5070458;28;20051;-77
2022/06/02 02:50:02;;;;;;;15.20;9.10;;;;;;;;;;5069481;28;20027;-77
2022/06/02 02:52:38;;;;;;;14.50;9.80;;;;;;;;;;5067963;28;20029;-77
2022/06/02 02:55:10;;;;;;;13.38;9.65;;;;;;;;;;5067722;28;20532;-77
2022/06/02 02:57:36;;;;;;;14.40;9.75;;;;;;;;;;5082450;28;20434;-78
2022/06/02 03:00:14;;;;;;;15.23;9.52;;;;;;;;;;5075143;28;20516;-77
2022/06/02 03:02:59;;;;;;;12.07;8.50;;;;;;;;;;5069708;28;20485;-77
2022/06/02 03:05:59;;;;;;;14.45;9.35;;;;;;;;;;5070061;28;20025;-78
2022/06/02 03:08:44;;;;;;;11.65;8.57;;;;;;;;;;5016551;28;20432;-77
2022/06/02 03:11:30;;;;;;;12.68;9.27;;;;;;;;;;5049729;28;20036;-77
2022/06/02 03:14:04;;;;;;;14.10;11.10;;;;;;;;;;5020088;28;20879;-78
2022/06/02 03:16:32;;;;;;;12.52;8.20;;;;;;;;;;5070338;28;20025;-78
2022/06/02 03:19:02;;;;;;;10.23;8.15;;;;;;;;;;5051893;28;20050;-77
2022/06/02 03:21:28;;;;;;;;;;;;;;;;;;5068702;28;20052;-77
2022/06/02 03:23:57;;;;;;;11.02;7.03;;;;;;;;;;5069619;28;20396;-77
2022/06/02 03:26:33;;;;;;;9.48;6.78;;;;;;;;;;5067856;28;20887;-77
2022/06/02 03:29:19;;;;;;;9.20;8.27;;;;;;;;;;5054924;28;20392;-77
2022/06/02 03:32:04;;;;;;;9.02;7.97;;;;;;;;;;5051590;28;20033;-78
2022/06/02 03:34:42;;;;;;;12.45;8.00;;;;;;;;;;5049587;28;20119;-78
2022/06/02 03:37:08;;;;;;;10.23;7.22;;;;;;;;;;5052461;28;20044;-77
2022/06/02 03:39:53;;;;;;;12.32;7.43;;;;;;;;;;5068285;28;20503;-77
2022/06/02 03:42:20;;;;;;;9.05;6.47;;;;;;;;;;5060298;28;20039;-77
2022/06/02 03:44:55;;;;;;;7.95;6.43;;;;;;;;;;5088606;28;20078;-77
2022/06/02 03:47:41;;;;;;;7.38;6.68;;;;;;;;;;5090202;28;20065;-77
2022/06/02 03:50:19;;;;;;;9.05;5.78;;;;;;;;;;5075260;28;20051;-77
2022/06/02 03:52:46;;;;;;;7.80;6.38;;;;;;;;;;5089631;28;20035;-78
2022/06/02 03:55:23;;;;;;;6.32;5.57;;;;;;;;;;5089403;28;20484;-79
2022/06/02 03:58:07;;;;;;;12.93;6.97;;;;;;;;;;5071075;28;20016;-77
2022/06/02 04:00:51;;;;;;;8.80;6.45;;;;;;;;;;5073345;28;20087;-78
2022/06/02 04:03:37;;;;;;;10.85;7.15;;;;;;;;;;5073299;28;20033;-78
2022/06/02 04:06:03;;;;;;;9.18;5.97;;;;;;;;;;5073401;28;20024;-77
2022/06/02 04:08:34;;;;;;;9.23;7.00;;;;;;;;;;5073166;28;20044;-78
2022/06/02 04:11:13;;;;;;;8.15;6.82;;;;;;;;;;5072959;28;20051;-78
2022/06/02 04:14:02;;;;;;;6.38;5.78;;;;;;;;;;5082811;28;20020;-76
2022/06/02 04:16:31;;;;;;;8.75;5.97;;;;;;;;;;5091358;28;20024;-77
2022/06/02 04:22:10;;;;;;;31.80;11.15;;;;;;;;;;5065478;28;20284;-77
2022/06/02 04:24:37;;;;;;;47.95;11.30;;;;;;;;;;5072739;28;20039;-77
2022/06/02 04:27:23;;;;;;;31.33;7.50;;;;;;;;;;5073060;28;20031;-76
2022/06/02 04:29:53;;;;;;;23.65;7.22;;;;;;;;;;5071425;28;20089;-76
2022/06/02 04:32:31;;;;;;;19.13;7.57;;;;;;;;;;5053588;28;20112;-76
2022/06/02 04:35:16;;;;;;;9.93;6.53;;;;;;;;;;5052928;28;20263;-78
2022/06/02 04:38:02;;;;;;;7.88;7.07;;;;;;;;;;5053008;28;20017;-77
2022/06/02 04:40:59;;;;;;;10.00;6.95;;;;;;;;;;5057146;28;20039;-77
2022/06/02 04:43:40;;;;;;;14.18;7.40;;;;;;;;;;5001848;28;20033;-78
2022/06/02 04:46:11;;;;;;;22.55;7.35;;;;;;;;;;5072910;28;20028;-77
2022/06/02 04:48:44;;;;;;;14.10;6.78;;;;;;;;;;5072127;28;20032;-78
2022/06/02 04:51:29;;;;;;;9.60;6.40;;;;;;;;;;5072794;28;20040;-77
2022/06/02 04:54:12;;;;;;;8.63;7.25;;;;;;;;;;5069833;28;20029;-77
2022/06/02 04:56:51;;;;;;;13.15;7.57;;;;;;;;;;5072603;28;20016;-78
2022/06/02 04:59:26;;;;;;;20.60;7.30;;;;;;;;;;5072536;28;20048;-77
2022/06/02 05:02:18;;;;;;;12.70;7.40;;;;;;;;;;5072489;28;20029;-77
2022/06/02 05:04:45;;;;;;;43.38;9.65;;;;;;;;;;5043314;28;20484;-77
2022/06/02 05:07:11;;;;;;;18.65;7.32;;;;;;;;;;5092809;28;20032;-77
2022/06/02 05:09:40;;;;;;;44.85;11.10;;;;;;;;;;5074463;28;20067;-78
2022/06/02 05:12:25;;;;;;;23.42;8.20;;;;;;;;;;5072297;28;20100;-77
2022/06/02 05:15:09;;;;;;;13.88;7.53;;;;;;;;;;5054087;28;20354;-76
2022/06/02 05:17:45;;;;;;;14.70;6.32;;;;;;;;;;5071920;28;20035;-78
2022/06/02 05:20:30;;;;;;;10.63;6.65;;;;;;;;;;5072147;28;20016;-78
2022/06/02 05:22:59;;;;;;;10.90;6.93;;;;;;;;;;5069600;28;20071;-78
2022/06/02 05:25:42;;;;;;;12.05;7.50;;;;;;;;;;5069988;28;20051;-77
2022/06/02 05:28:28;;;;;;;7.45;6.10;;;;;;;;;;5069227;28;20017;-77
2022/06/02 05:31:13;;;;;;;7.75;5.82;;;;;;;;;;5070591;28;20052;-78
2022/06/02 05:33:58;;;;;;;8.73;7.82;;;;;;;;;;5072033;28;20456;-77
2022/06/02 05:36:34;;;;;;;8.20;7.28;;;;;;;;;;5071536;28;20799;-77
2022/06/02 05:39:12;;;;;;;9.05;6.18;;;;;;;;;;5071490;28;20020;-75
2022/06/02 05:41:57;;;;;;;7.40;6.13;;;;;;;;;;5071645;28;20044;-76
2022/06/02 05:44:39;;;;;;;8.85;7.32;;;;;;;;;;5071542;28;20535;-78
2022/06/02 05:47:06;;;;;;;6.72;6.13;;;;;;;;;;5053237;28;20078;-77
2022/06/02 05:49:47;;;;;;;10.60;6.80;;;;;;;;;;5071371;28;20024;-78
2022/06/02 05:52:22;;;;;;;7.70;6.75;;;;;;;;;;5070589;28;20041;-79
2022/06/02 05:54:53;;;;;;;9.15;7.30;;;;;;;;;;5069778;28;20016;-78
2022/06/02 05:57:34;;;;;;;7.65;6.93;;;;;;;;;;5068198;28;20036;-78
2022/06/02 06:00:06;;;;;;;8.73;7.63;;;;;;;;;;5066369;28;20111;-79
2022/06/02 06:02:33;;;;;;;9.52;8.18;;;;;;;;;;5071454;28;20017;-77
2022/06/02 06:05:11;;;;;;;9.18;7.38;;;;;;;;;;5052681;28;21432;-79
2022/06/02 06:07:56;;;;;;;9.00;7.53;;;;;;;;;;5054468;28;20030;-80
2022/06/02 06:10:26;;;;;;;9.32;7.05;;;;;;;;;;5055576;28;20033;-79
2022/06/02 06:13:21;;;;;;;9.63;7.30;;;;;;;;;;5066025;28;20029;-79
2022/06/02 06:15:58;;;;;;;8.75;7.35;;;;;;;;;;5038208;28;20049;-79
2022/06/02 06:18:34;;;;;;;9.60;7.50;;;;;;;;;;5072158;28;20023;-79
2022/06/02 06:21:00;;;;;;;8.63;6.57;;;;;;;;;;5071100;28;20031;-78
2022/06/02 06:23:35;;;;;;;10.32;7.57;;;;;;;;;;5080338;28;20020;-79
2022/06/02 06:26:17;;;;;;;8.85;7.50;;;;;;;;;;5091233;28;20008;-78
2022/06/02 06:28:50;;;;;;;9.93;7.40;;;;;;;;;;5069310;28;20051;-78
2022/06/02 06:31:26;;;;;;;8.73;7.13;;;;;;;;;;5069950;28;20120;-79
2022/06/02 06:33:52;;;;;;;12.73;6.90;;;;;;;;;;5071114;28;20025;-79
2022/06/02 06:36:38;;;;;;;10.30;7.57;;;;;;;;;;5054465;28;20473;-79
2022/06/02 06:39:23;;;;;;;7.65;6.88;;;;;;;;;;5050777;28;20074;-79
2022/06/02 06:41:55;;;;;;;12.27;8.15;;;;;;;;;;5052838;28;20564;-78
2022/06/02 06:44:21;;;;;;;10.00;7.68;;;;;;;;;;5067509;28;20020;-79
2022/06/02 06:46:49;;;;;;;10.18;7.75;;;;;;;;;;5069062;28;20024;-78
2022/06/02 06:49:20;;;;;;;12.57;7.15;;;;;;;;;;5069205;28;20025;-78
2022/06/02 06:52:05;;;;;;;8.10;6.68;;;;;;;;;;5069915;28;20513;-78
2022/06/02 06:54:40;;;;;;;14.93;7.90;;;;;;;;;;5068613;28;20020;-81
2022/06/02 06:57:29;;;;;;;9.95;7.43;;;;;;;;;;5061023;28;20048;-79
2022/06/02 07:00:16;;;;;;;9.35;7.65;;;;;;;;;;5057716;28;20040;-79
2022/06/02 07:03:04;;;;;;;11.60;8.30;;;;;;;;;;5070148;28;20025;-79
2022/06/02 07:05:38;;;;;;;11.93;8.23;;;;;;;;;;5061984;28;20020;-78
2022/06/02 07:08:30;;;;;;;11.07;7.55;;;;;;;;;;5048871;28;20045;-79
2022/06/02 07:14:19;;;;;;;11.57;8.40;;;;;;;;;;5064155;28;20074;-79
2022/06/02 07:16:58;;;;;;;12.43;7.63;;;;;;;;;;5021510;28;20112;-79
2022/06/02 07:19:24;;;;;;;12.85;9.23;;;;;;;;;;5060905;28;20058;-79
2022/06/02 07:21:56;;;;;;;12.05;7.75;;;;;;;;;;5069816;28;20016;-79
2022/06/02 07:24:22;;;;;;;11.35;7.97;;;;;;;;;;5068524;28;20479;-80
2022/06/02 07:26:51;;;;;;;10.55;8.15;;;;;;;;;;5060668;28;20031;-80
2022/06/02 07:29:35;;;;;;;9.87;6.37;;;;;;;;;;5068163;28;20027;-81
2022/06/02 07:32:20;;;;;;;10.75;9.15;;;;;;;;;;5066820;28;20122;-80
2022/06/02 07:34:46;;;;;;;9.82;7.63;;;;;;;;;;5071263;28;20108;-79
2022/06/02 07:37:31;;;;;;;9.93;6.68;;;;;;;;;;5050645;28;20025;-80
2022/06/02 07:40:15;;;;;;;10.90;8.13;;;;;;;;;;5063635;28;20021;-81
2022/06/02 07:42:58;;;;;;;15.10;9.50;;;;;;;;;;5065355;28;20020;-80
2022/06/02 07:45:40;;;;;;;9.88;7.55;;;;;;;;;;5061391;28;20112;-81
2022/06/02 07:48:32;;;;;;;15.05;8.48;;;;;;;;;;5068901;28;20077;-81
2022/06/02 07:51:09;;;;;;;11.52;8.30;;;;;;;;;;5062853;28;20439;-80
2022/06/02 07:53:55;;;;;;;9.80;8.05;;;;;;;;;;5068860;28;20546;-80
2022/06/02 07:56:24;;;;;;;11.15;8.55;;;;;;;;;;5049075;28;20039;-80
2022/06/02 07:59:09;;;;;;;12.23;8.45;;;;;;;;;;5067646;28;20435;-81
2022/06/02 08:01:58;;;;;;;12.43;8.82;;;;;;;;;;5068321;28;20504;-80
2022/06/02 08:04:27;;;;;;;10.32;8.05;;;;;;;;;;5057576;28;20039;-82
2022/06/02 08:06:59;;;;;;;11.45;7.55;;;;;;;;;;5063907;28;20020;-80
2022/06/02 08:09:38;;;;;;;9.23;7.07;;;;;;;;;;5056133;28;20060;-80
2022/06/02 08:12:04;;;;;;;9.15;7.28;;;;;;;;;;5028949;28;20025;-77
2022/06/02 08:14:30;;;;;;;10.93;8.30;;;;;;;;;;5049031;28;20031;-79
2022/06/02 08:17:00;;;;;;;10.15;7.70;;;;;;;;;;5047594;28;20112;-80
2022/06/02 08:19:36;;;;;;;11.77;7.05;;;;;;;;;;5048186;28;20134;-78
2022/06/02 08:22:04;;;;;;;10.55;7.32;;;;;;;;;;5049156;28;20394;-76
2022/06/02 08:24:36;;;;;;;8.70;6.70;;;;;;;;;;5049124;28;20132;-76
2022/06/02 08:27:05;;;;;;;9.55;7.07;;;;;;;;;;5044351;28;20159;-77
2022/06/02 08:29:37;;;;;;;9.13;7.63;;;;;;;;;;5048069;28;20009;-77
2022/06/02 08:32:04;;;;;;;11.52;7.95;;;;;;;;;;5052515;28;20047;-78
2022/06/02 08:34:36;;;;;;;10.60;9.50;;;;;;;;;;5048978;28;20067;-78
2022/06/02 08:37:38;;;;;;;10.30;8.60;;;;;;;;;;5048479;28;20033;-77
2022/06/02 08:40:07;;;;;;;12.43;8.75;;;;;;;;;;4948046;29;20429;-77
2022/06/02 08:42:42;;;;;;;10.15;8.52;;;;;;;;;;5027725;28;20025;-77
2022/06/02 08:45:26;;;;;;;11.85;9.27;;;;;;;;;;5049728;28;20066;-77
2022/06/02 08:48:13;;;;;;;15.55;9.05;;;;;;;;;;5045562;28;20025;-77
2022/06/02 08:50:59;;;;;;;13.55;9.25;;;;;;;;;;5000209;28;20127;-77
2022/06/02 08:53:43;;;;;;;11.95;9.00;;;;;;;;;;5052206;28;20033;-77
2022/06/02 08:56:25;;;;;;;13.90;9.45;;;;;;;;;;5051331;28;20024;-78
2022/06/02 08:59:02;;;;;;;12.13;9.60;;;;;;;;;;5050037;28;20166;-77
2022/06/02 09:01:37;;;;;;;11.88;8.75;;;;;;;;;;5054415;28;20040;-78
2022/06/02 09:04:24;;;;;;;11.25;9.45;;;;;;;;;;5033597;28;20402;-77
2022/06/02 09:07:06;;;;;;;16.00;9.15;;;;;;;;;;5054830;28;20067;-77
2022/06/02 09:09:53;;;;;;;14.45;10.00;;;;;;;;;;5069051;28;20044;-78
2022/06/02 09:12:19;;;;;;;11.77;9.85;;;;;;;;;;5071724;28;20048;-77
2022/06/02 09:15:03;;;;;;;11.98;9.68;;;;;;;;;;5068139;28;20020;-76
2022/06/02 09:17:39;;;;;;;12.70;10.52;;;;;;;;;;5071170;28;20019;-77
2022/06/02 09:20:09;;;;;;;11.95;10.07;;;;;;;;;;5071635;28;20127;-76
2022/06/02 09:22:54;;;;;;;14.95;11.65;;;;;;;;;;5071613;28;20029;-76
2022/06/02 09:25:35;;;;;;;18.58;11.98;;;;;;;;;;5067459;28;20028;-77
2022/06/02 09:28:07;;;;;;;11.57;9.80;;;;;;;;;;5071132;28;20047;-79
2022/06/02 09:30:51;;;;;;;18.90;10.70;;;;;;;;;;5061987;28;20025;-76
2022/06/02 09:33:38;;;;;;;14.30;10.52;;;;;;;;;;5067699;28;20029;-77
2022/06/02 09:36:11;;;;;;;16.65;11.65;;;;;;;;;;5061237;28;20039;-77
2022/06/02 09:38:48;;;;;;;15.35;12.40;;;;;;;;;;5071530;28;20028;-77
2022/06/02 09:41:42;;;;;;;14.97;10.67;;;;;;;;;;5071275;28;20068;-78
2022/06/02 09:44:16;;;;;;;13.25;11.00;;;;;;;;;;5066558;28;20052;-77
2022/06/02 09:47:01;;;;;;;15.52;13.20;;;;;;;;;;5048241;28;20016;-77
2022/06/02 09:49:34;;;;;;;21.60;17.15;;;;;;;;;;5070023;28;20012;-77
2022/06/02 09:52:19;;;;;;;20.08;15.50;;;;;;;;;;5065011;28;20035;-77
2022/06/02 09:55:20;;;;;;;17.73;14.52;;;;;;;;;;5065030;28;20029;-77
2022/06/02 09:57:55;;;;;;;14.57;12.07;;;;;;;;;;4970193;28;20066;-79
2022/06/02 10:00:40;;;;;;;18.98;11.50;;;;;;;;;;5050896;28;20040;-78
2022/06/02 10:03:35;;;;;;;22.98;12.05;;;;;;;;;;5070958;28;20047;-77
2022/06/02 10:06:01;;;;;;;13.32;11.18;;;;;;;;;;5059401;28;20469;-78
2022/06/02 10:08:43;;;;;;;15.52;11.23;;;;;;;;;;5063075;28;20044;-78
2022/06/02 10:11:27;;;;;;;14.18;11.02;;;;;;;;;;5070758;28;20058;-78
2022/06/02 10:13:59;;;;;;;13.65;11.43;;;;;;;;;;5063647;28;20017;-77
2022/06/02 10:16:43;;;;;;;14.82;11.05;;;;;;;;;;5068174;28;20108;-78
2022/06/02 10:19:35;;;;;;;15.88;10.63;;;;;;;;;;5069558;28;20044;-78
2022/06/02 10:22:09;;;;;;;14.07;11.98;;;;;;;;;;5066617;28;20017;-78
2022/06/02 10:24:53;;;;;;;13.85;11.48;;;;;;;;;;5065925;28;20032;-78
2022/06/02 10:27:25;;;;;;;14.98;10.98;;;;;;;;;;5069069;28;20028;-78
2022/06/02 10:30:10;;;;;;;14.65;10.80;;;;;;;;;;5063115;28;20024;-78
2022/06/02 10:32:39;;;;;;;15.43;11.00;;;;;;;;;;5069659;28;20032;-77
2022/06/02 10:35:26;;;;;;;14.48;10.50;;;;;;;;;;5067477;28;20020;-79
2022/06/02 10:37:58;;;;;;;14.38;10.15;;;;;;;;;;5068205;28;20458;-78
2022/06/02 10:40:36;;;;;;;14.32;10.45;;;;;;;;;;5062903;28;20021;-78
2022/06/02 10:43:21;;;;;;;15.90;10.68;;;;;;;;;;5070056;28;20025;-77
2022/06/02 10:45:53;;;;;;;13.32;10.50;;;;;;;;;;5063293;28;20083;-77
2022/06/02 10:48:19;;;;;;;14.70;11.07;;;;;;;;;;5066027;28;20495;-77
2022/06/02 10:51:09;;;;;;;14.70;11.43;;;;;;;;;;5069961;28;20032;-77
2022/06/02 10:54:11;;;;;;;12.63;9.73;;;;;;;;;;5116679;27;20451;-78
2022/06/02 10:56:56;;;;;;;11.15;9.98;;;;;;;;;;5086456;28;20043;-78
2022/06/02 10:59:40;;;;;;;14.55;10.82;;;;;;;;;;5087499;28;20023;-77
2022/06/02 11:02:21;;;;;;;14.13;10.90;;;;;;;;;;5102260;28;20511;-77
2022/06/02 11:05:06;;;;;;;16.13;11.77;;;;;;;;;;5096674;28;20020;-78
2022/06/02 11:07:57;;;;;;;16.10;11.38;;;;;;;;;;5085468;28;20012;-78
2022/06/02 11:10:27;;;;;;;12.98;11.18;;;;;;;;;;5075381;28;20021;-78
2022/06/02 11:13:22;;;;;;;14.90;11.45;;;;;;;;;;5105898;28;20032;-77
2022/06/02 11:15:48;;;;;;;15.02;11.43;;;;;;;;;;5094884;28;20486;-77
2022/06/02 11:18:14;;;;;;;15.30;10.73;;;;;;;;;;5089098;28;20013;-75
2022/06/02 11:20:55;;;;;;;14.43;10.80;;;;;;;;;;5093002;28;20697;-78
2022/06/02 11:23:21;;;;;;;14.00;11.95;;;;;;;;;;5100377;28;20024;-76
2022/06/02 11:26:13;;;;;;;16.58;12.82;;;;;;;;;;5082010;28;20099;-78
2022/06/02 11:29:00;;;;;;;14.73;13.20;;;;;;;;;;5090485;28;20020;-78
2022/06/02 11:31:44;;;;;;;13.38;11.93;;;;;;;;;;5083779;28;20474;-77
2022/06/02 11:34:10;;;;;;;17.75;11.85;;;;;;;;;;5079719;28;20028;-80
2022/06/02 11:37:09;;;;;;;12.68;10.45;;;;;;;;;;5095438;28;20032;-78
2022/06/02 11:39:35;;;;;;;14.75;12.57;;;;;;;;;;5041294;28;20591;-78
2022/06/02 11:42:33;;;;;;;17.13;14.57;;;;;;;;;;5095873;28;20026;-79
2022/06/02 11:45:05;;;;;;;17.08;13.88;;;;;;;;;;5040890;28;20081;-78
2022/06/02 11:47:45;;;;;;;16.75;12.90;;;;;;;;;;5095833;28;20473;-78
2022/06/02 11:50:29;;;;;;;20.92;15.27;;;;;;;;;;5082462;28;20073;-78
2022/06/02 11:53:04;;;;;;;16.30;14.18;;;;;;;;;;5077720;28;20056;-76
2022/06/02 11:55:34;;;;;;;17.27;15.30;;;;;;;;;;5085444;28;20094;-77
2022/06/02 11:58:00;;;;;;;;;;;;;;;;;;5083985;28;20038;-78
2022/06/02 12:00:29;;;;;;;26.10;17.92;;;;;;;;;;5080415;28;20365;-77
2022/06/02 12:03:15;;;;;;;15.65;12.10;;;;;;;;;;5059722;28;20021;-78
2022/06/02 12:05:54;;;;;;;25.60;16.70;;;;;;;;;;5038533;28;20055;-78
2022/06/02 12:08:34;;;;;;;21.77;15.63;;;;;;;;;;5052357;28;20031;-79
2022/06/02 12:11:15;;;;;;;19.83;16.27;;;;;;;;;;5060028;28;20025;-79
2022/06/02 12:13:42;;;;;;;20.60;15.38;;;;;;;;;;5049737;28;20037;-78
2022/06/02 12:16:30;;;;;;;17.27;14.07;;;;;;;;;;5053264;28;20012;-79
2022/06/02 12:18:56;;;;;;;16.83;11.63;;;;;;;;;;5056580;28;20024;-81
2022/06/02 12:21:41;;;;;;;14.73;11.30;;;;;;;;;;5055162;28;20035;-79
2022/06/02 12:24:13;;;;;;;20.58;13.73;;;;;;;;;;5059329;28;20031;-79
2022/06/02 12:26:39;;;;;;;18.30;14.32;;;;;;;;;;5061477;28;20021;-78
2022/06/02 12:29:25;;;;;;;21.13;14.05;;;;;;;;;;5069753;28;20028;-78
2022/06/02 12:32:10;;;;;;;21.05;14.75;;;;;;;;;;5060119;28;20478;-77
2022/06/02 12:34:54;;;;;;;17.90;14.75;;;;;;;;;;5044645;28;20033;-78
2022/06/02 12:37:39;;;;;;;20.45;15.75;;;;;;;;;;5051369;28;20016;-77
2022/06/02 12:40:17;;;;;;;24.90;16.17;;;;;;;;;;5070415;28;20020;-78
2022/06/02 12:42:53;;;;;;;17.88;15.30;;;;;;;;;;5070125;28;20028;-78
2022/06/02 12:45:20;;;;;;;22.55;16.20;;;;;;;;;;5052684;28;20427;-77
2022/06/02 12:47:46;;;;;;;19.63;15.38;;;;;;;;;;5059772;28;20025;-79
2022/06/02 12:50:30;;;;;;;24.17;17.77;;;;;;;;;;5066416;28;20069;-77
2022/06/02 12:53:02;;;;;;;18.77;15.50;;;;;;;;;;5052510;28;20044;-80
2022/06/02 12:55:34;;;;;;;25.55;19.95;;;;;;;;;;5053152;28;20029;-78
2022/06/02 12:58:14;;;;;;;24.35;18.73;;;;;;;;;;5069725;28;20439;-78
2022/06/02 13:00:53;;;;;;;25.52;19.05;;;;;;;;;;5061575;28;20016;-78
2022/06/02 13:03:37;;;;;;;26.85;19.05;;;;;;;;;;5063975;28;20030;-79
2022/06/02 13:06:13;;;;;;;26.35;19.17;;;;;;;;;;5060231;28;20497;-79
2022/06/02 13:08:39;;;;;;;22.38;18.20;;;;;;;;;;5061574;28;20036;-79
2022/06/02 13:11:13;;;;;;;23.48;18.48;;;;;;;;;;5061735;28;20024;-78
2022/06/02 13:13:57;;;;;;;23.02;18.13;;;;;;;;;;5062944;28;20043;-77
2022/06/02 13:16:47;;;;;;;22.67;18.42;;;;;;;;;;5051517;28;20029;-83
2022/06/02 13:19:31;;;;;;;23.33;18.85;;;;;;;;;;5045453;28;20493;-83
2022/06/02 13:22:17;;;;;;;17.20;14.35;;;;;;;;;;5038603;28;20111;-82
2022/06/02 13:24:52;;;;;;;27.23;17.42;;;;;;;;;;5060957;28;20085;-82
2022/06/02 13:27:38;;;;;;;19.50;16.45;;;;;;;;;;5045080;28;20055;-83
2022/06/02 13:30:24;;;;;;;21.08;16.27;;;;;;;;;;5039401;28;20032;-82
2022/06/02 13:33:16;;;;;;;18.85;15.55;;;;;;;;;;5050531;28;20029;-81
2022/06/02 13:35:42;;;;;;;18.77;14.75;;;;;;;;;;5051640;28;20017;-80
2022/06/02 13:38:11;;;;;;;17.98;14.55;;;;;;;;;;5063701;28;20058;-83
2022/06/02 13:40:56;;;;;;;18.10;14.55;;;;;;;;;;5042447;28;20024;-81
2022/06/02 13:43:40;;;;;;;22.10;14.60;;;;;;;;;;5059489;28;20035;-81
2022/06/02 13:46:15;;;;;;;15.70;13.95;;;;;;;;;;5055394;28;20037;-81
2022/06/02 13:49:01;;;;;;;17.60;13.93;;;;;;;;;;5060610;28;20449;-81
2022/06/02 13:51:33;;;;;;;17.42;12.93;;;;;;;;;;5059537;28;20512;-81
2022/06/02 13:57:31;;;;;;;17.95;13.85;;;;;;;;;;5057509;28;20066;-81
2022/06/02 14:00:01;;;;;;;15.50;13.40;;;;;;;;;;5036929;28;20055;-81
2022/06/02 14:02:39;;;;;;;20.27;15.90;;;;;;;;;;5050498;28;20036;-81
2022/06/02 14:05:21;;;;;;;23.85;14.05;;;;;;;;;;5067449;28;20031;-82
2022/06/02 14:08:05;;;;;;;14.02;12.68;;;;;;;;;;5069516;28;20587;-81
2022/06/02 14:10:43;;;;;;;16.52;12.18;;;;;;;;;;5069710;28;20013;-82
2022/06/02 14:13:13;;;;;;;14.77;12.52;;;;;;;;;;5053136;28;20040;-83
2022/06/02 14:15:43;;;;;;;15.50;12.13;;;;;;;;;;5070161;28;20032;-84
2022/06/02 14:18:26;;;;;;;13.63;11.27;;;;;;;;;;5038956;28;20137;-82
2022/06/02 14:21:02;;;;;;;12.05;10.60;;;;;;;;;;5015101;28;20491;-83
2022/06/02 14:23:47;;;;;;;18.73;12.32;;;;;;;;;;5067024;28;20020;-82
2022/06/02 14:26:20;;;;;;;13.50;11.25;;;;;;;;;;5069121;28;20028;-81
2022/06/02 14:28:49;;;;;;;15.32;11.82;;;;;;;;;;5068835;28;20012;-81
2022/06/02 14:31:19;;;;;;;12.43;9.98;;;;;;;;;;5049812;28;20031;-82
2022/06/02 14:33:51;;;;;;;16.92;12.20;;;;;;;;;;5049431;28;20032;-82
2022/06/02 14:36:35;;;;;;;19.65;11.27;;;;;;;;;;5049292;28;20017;-81
2022/06/02 14:39:08;;;;;;;13.35;11.90;;;;;;;;;;5049231;28;20032;-81
2022/06/02 14:41:34;;;;;;;14.13;11.20;;;;;;;;;;5033592;28;20057;-82
2022/06/02 14:44:20;;;;;;;15.55;13.38;;;;;;;;;;5051235;28;20031;-82
2022/06/02 14:47:00;;;;;;;11.57;10.43;;;;;;;;;;5069786;28;20031;-82
2022/06/02 14:49:45;;;;;;;12.18;9.60;;;;;;;;;;5050505;28;20047;-82
2022/06/02 14:52:14;;;;;;;13.55;10.13;;;;;;;;;;5071282;28;20049;-83
2022/06/02 14:54:46;;;;;;;9.93;8.93;;;;;;;;;;5050733;28;20032;-82
2022/06/02 14:57:30;;;;;;;12.27;10.15;;;;;;;;;;5086210;28;20016;-81
2022/06/02 15:00:04;;;;;;;9.73;8.73;;;;;;;;;;5089155;28;20016;-81
2022/06/02 15:02:40;;;;;;;11.15;8.73;;;;;;;;;;5070122;28;20093;-82
2022/06/02 15:05:09;;;;;;;12.10;9.07;;;;;;;;;;5089828;28;20020;-82
2022/06/02 15:07:36;;;;;;;10.68;8.93;;;;;;;;;;5089471;28;20024;-82
2022/06/02 15:10:04;;;;;;;12.40;9.30;;;;;;;;;;5089456;28;20028;-81
2022/06/02 15:12:37;;;;;;;15.55;10.30;;;;;;;;;;5079896;28;20370;-81
2022/06/02 15:15:19;;;;;;;14.68;8.90;;;;;;;;;;5080931;28;20410;-83
2022/06/02 15:18:04;;;;;;;9.80;8.35;;;;;;;;;;5070714;28;20017;-82
2022/06/02 15:20:33;;;;;;;15.80;9.00;;;;;;;;;;5070842;28;20032;-81
2022/06/02 15:23:02;;;;;;;13.52;9.65;;;;;;;;;;5063911;28;20392;-81
2022/06/02 15:25:44;;;;;;;15.38;10.90;;;;;;;;;;5089346;28;20476;-82
2022/06/02 15:28:40;;;;;;;10.10;8.48;;;;;;;;;;5071057;28;20081;-81
2022/06/02 15:31:44;;;;;;;12.25;9.35;;;;;;;;;;4983117;28;20073;-82
2022/06/02 15:34:37;;;;;;;9.73;8.57;;;;;;;;;;4968015;28;20476;-81
2022/06/02 15:37:22;;;;;;;10.07;9.10;;;;;;;;;;4968355;28;20345;-81
2022/06/02 15:40:02;;;;;;;12.75;9.65;;;;;;;;;;5048976;28;20552;-82